Pagrindinis puslapis
METAR-TAF:

METAR-TAF

Oro uostai :

Stokholmas-Skavsta, Švedija

platuma: 58-47N, ilguma: 016-55E, Aukštis: 43 m

Dabartinis oras

Ataskaita buvo paskelbta 41 minutes, ne 19:20 UTC
Ramus vėjas
Temperatūra 12°C
Drėgmė 100%
Slėgis 1002 hPa
Matomumas: 5000 m
Rūkas lopais, rūkana

METAR: ESKN 231920Z 00000KT 5000 R08/0225N R26/0325N BCFG BR NSC 12/12 Q1002

Laikas: 22:01 (20:01 UTC)

Prognozė

Ataskaita buvo paskelbta 2 valandos ir 31 minutes, ne 17:30 UTC
Prognozė galioja nuo 23 metu 18 UTC su 24 metu 18 UTC
Vėjas 5 kt iš Pietryčių
Matomumas 10 km arba daugiau
nėra debesų žemiau 1500 m ir nėra kamuolinių lietaus debesų
Tikimybė 40%
nuo 23 metu 22 UTC su 24 metu 07 UTC
Matomumas: 1200 m
rūkana
Laikinai
nuo 24 metu 16 UTC su 24 metu 18 UTC
Su prošvaistėmis ne aukštis 3000 ft, Liūtiniai kamuoliniai debesys.
lietus
Tikimybė 40%
nuo 24 metu 16 UTC su 24 metu 18 UTC
Matomumas: 4000 m
perkūnija, lietus

TAF: ESKN 231730Z 2318/2418 14005KT CAVOK PROB40 2322/2407 1200 BR TEMPO 2416/2418 SHRA BKN030CB PROB40 2416/2418 4000 TSRA

Orai ataskaitas ir orų prognozės (METAR, TAF).

turimą stotys yra geltonos ir raudonos taškus žemėlapyje.

Perkelti pele per norėdami pamatyti stoties vardą.

Tada spustelėkite, norėdami matyti oro stebėjimo ir prognozės.

Norėdami pakeisti žemėlapį: spustelėkite ant žalios mygtukų su juodo kryžiaus žemyn,; žalią mygtuką su brūkšneliu, jei norite nutolinti; arba žalių rodyklių gretimoms žemėlapius.


METAR-TAF: